Home > Products > Valid Products > TAF

000
FTUS43 KGID 300527
TAFGRI
TAF
KGRI 300527Z 3006/3106 19011KT P6SM BKN200
     FM301200 17005KT P6SM SCT250
     FM301600 17010KT P6SM SCT250
     FM302100 18015G22KT P6SM VCTS SCT080CB SCT250
     FM310000 18014KT P6SM VCTS BKN080CB=



000
FTUS43 KGID 292359
TAFGRI
TAF
KGRI 292359Z 3000/3024 17010KT P6SM VCTS SCT080CB BKN200
     FM300500 17010KT P6SM SCT080
     FM301800 18013G19KT P6SM SCT050=



000
FTUS43 KGID 280421 AAA
TAFGRI
TAF AMD
KGRI 280421Z 2804/2824 10014G20KT P6SM VCTS OVC035CB
     FM280800 VRB04KT P6SM VCTS OVC025CB
     FM281200 33007KT P6SM VCTS BKN035CB
     FM281600 33011KT P6SM BKN050=



000
FTUS43 KGID 272335
TAFGRI
TAF
KGRI 272335Z 2800/2824 VRB10KT 2SM TSRA OVC025CB
     FM280100 VRB04KT P6SM VCTS OVC025CB
     FM281200 33007KT P6SM VCTS BKN035CB
     FM281600 33011KT P6SM BKN050=



000
FTUS43 KGID 271720
TAFGRI
TAF
KGRI 271720Z 2718/2818 09008KT P6SM VCTS OVC040CB
     FM280300 VRB04KT P6SM VCTS OVC025CB
     FM281200 33007KT P6SM VCTS BKN035CB=



    US Dept of Commerce
    National Oceanic and Atmospheric Administration
    National Weather Service
    1325 East West Highway
    Silver Spring, MD 20910
    Page Author: NWS Internet Services Team
Disclaimer
Information Quality
Credits
Glossary
Privacy Policy
Freedom of Information Act (FOIA)
About Us
Career Opportunities